Time;durP1;ratioP1;P1;durP2;ratioP2;P2;SDS_P1;SDS_P2;PMS_P1;PMS_P2;Temp;Humidity;BMP_temperature;BMP_pressure;BME280_temperature;BME280_humidity;BME280_pressure;Samples;Min_cycle;Max_cycle;Signal;HPM_P1;HPM_P2
2022/07/06 00:01:50;;;;;;;0.35;0.35;;;;;;;17.10;51.49;102695.63;5074253;28;20028;-78
2022/07/06 00:04:18;;;;;;;0.10;0.10;;;;;;;17.09;50.17;102693.84;5075193;28;20017;-78
2022/07/06 00:06:45;;;;;;;0.00;0.00;;;;;;;17.05;50.36;102697.50;5073805;28;20020;-78
2022/07/06 00:09:11;;;;;;;0.10;0.10;;;;;;;17.02;51.11;102699.34;5074208;28;20033;-77
2022/07/06 00:11:37;;;;;;;0.00;0.00;;;;;;;16.99;51.48;102692.25;5073878;28;20024;-77
2022/07/06 00:14:04;;;;;;;0.00;0.00;;;;;;;16.96;51.04;102682.47;5074413;28;20085;-79
2022/07/06 00:16:31;;;;;;;0.00;0.00;;;;;;;16.94;52.59;102692.31;5074425;28;20031;-79
2022/07/06 00:18:57;;;;;;;0.00;0.00;;;;;;;16.91;51.80;102687.03;5075233;28;20036;-78
2022/07/06 00:21:23;;;;;;;0.00;0.00;;;;;;;16.91;51.94;102689.72;5074205;28;20047;-79
2022/07/06 00:23:51;;;;;;;0.10;0.10;;;;;;;16.90;52.26;102690.56;5075753;28;20067;-78
2022/07/06 00:26:18;;;;;;;0.40;0.40;;;;;;;16.89;51.83;102685.25;5074700;28;20345;-79
2022/07/06 00:28:44;;;;;;;0.00;0.00;;;;;;;16.88;51.61;102680.81;5074908;28;20032;-79
2022/07/06 00:31:10;;;;;;;0.00;0.00;;;;;;;16.85;51.53;102681.75;5073921;28;20032;-78
2022/07/06 00:33:36;;;;;;;0.00;0.00;;;;;;;16.84;52.61;102681.78;5074549;28;20024;-79
2022/07/06 00:36:03;;;;;;;0.00;0.00;;;;;;;16.84;52.01;102676.41;5074890;28;20043;-79
2022/07/06 00:38:29;;;;;;;0.10;0.10;;;;;;;16.82;51.26;102680.00;5075139;28;20593;-78
2022/07/06 00:40:55;;;;;;;0.10;0.10;;;;;;;16.81;51.15;102678.22;5073732;28;20028;-79
2022/07/06 00:43:21;;;;;;;0.00;0.00;;;;;;;16.80;51.28;102670.22;5074249;28;20147;-79
2022/07/06 00:45:48;;;;;;;0.10;0.10;;;;;;;16.78;52.45;102678.25;5074809;28;20434;-78
2022/07/06 00:48:14;;;;;;;0.00;0.00;;;;;;;16.78;51.81;102686.28;5074109;28;20020;-78
2022/07/06 00:50:40;;;;;;;0.00;0.00;;;;;;;16.77;51.72;102683.66;5073878;28;20059;-79
2022/07/06 00:53:08;;;;;;;0.10;0.10;;;;;;;16.72;54.29;102693.56;5073402;28;20020;-78
2022/07/06 00:55:40;;;;;;;0.10;0.10;;;;;;;16.74;52.73;102689.06;5074539;28;20137;-79
2022/07/06 00:58:08;;;;;;;0.10;0.10;;;;;;;16.71;54.24;102686.44;5074392;28;20028;-79
2022/07/06 01:00:34;;;;;;;0.10;0.10;;;;;;;16.74;52.52;102692.63;5074234;28;20037;-79
2022/07/06 01:03:01;;;;;;;0.00;0.00;;;;;;;16.72;53.69;102691.75;5073408;28;20020;-79
2022/07/06 01:05:28;;;;;;;0.00;0.00;;;;;;;16.71;53.04;102684.66;5075175;28;20547;-78
2022/07/06 01:07:54;;;;;;;0.00;0.00;;;;;;;16.65;53.98;102688.31;5073991;28;20039;-79
2022/07/06 01:10:22;;;;;;;0.00;0.00;;;;;;;16.61;54.63;102685.69;5074335;28;20441;-79
2022/07/06 01:12:49;;;;;;;0.00;0.00;;;;;;;16.63;53.25;102682.06;5073094;28;20029;-79
2022/07/06 01:15:19;;;;;;;0.00;0.00;;;;;;;16.71;53.06;102687.34;5074571;28;20036;-78
2022/07/06 01:17:46;;;;;;;0.00;0.00;;;;;;;16.66;54.44;102679.38;5074073;28;20415;-79
2022/07/06 01:20:24;;;;;;;0.10;0.10;;;;;;;16.68;54.00;102681.16;5074482;28;20503;-78
2022/07/06 01:22:53;;;;;;;0.10;0.10;;;;;;;16.70;53.49;102680.22;5072664;28;20041;-78
2022/07/06 01:25:20;;;;;;;0.08;0.08;;;;;;;16.69;54.19;102681.09;5075004;28;20036;-79
2022/07/06 01:27:47;;;;;;;0.00;0.00;;;;;;;16.68;53.12;102676.66;5074273;28;20039;-78
2022/07/06 01:30:16;;;;;;;0.03;0.03;;;;;;;16.70;53.38;102682.88;5074377;28;20033;-78
2022/07/06 01:32:43;;;;;;;0.10;0.10;;;;;;;16.65;53.09;102680.28;5073246;28;20025;-79
2022/07/06 01:35:12;;;;;;;0.00;0.00;;;;;;;16.63;54.49;102678.53;5073882;28;20488;-79
2022/07/06 01:37:38;;;;;;;0.00;0.00;;;;;;;16.61;54.06;102680.34;5073605;28;20029;-79
2022/07/06 01:40:06;;;;;;;0.43;0.32;;;;;;;16.60;54.07;102675.91;5074010;28;20033;-79
2022/07/06 01:42:33;;;;;;;0.10;0.10;;;;;;;16.58;53.81;102680.41;5073227;28;20038;-78
2022/07/06 01:45:00;;;;;;;0.10;0.10;;;;;;;16.56;54.09;102677.75;5073561;28;20384;-79
2022/07/06 01:47:26;;;;;;;0.10;0.10;;;;;;;16.55;54.06;102677.75;5073616;28;20032;-79
2022/07/06 01:49:52;;;;;;;0.00;0.00;;;;;;;16.55;54.68;102669.72;5074316;28;20032;-78
2022/07/06 01:52:19;;;;;;;0.00;0.00;;;;;;;16.56;54.82;102676.84;5073355;28;20035;-79
2022/07/06 01:54:45;;;;;;;0.00;0.00;;;;;;;16.54;54.84;102678.69;5073875;28;20067;-79
2022/07/06 01:57:11;;;;;;;0.00;0.00;;;;;;;16.54;53.86;102674.22;5073821;28;20028;-79
2022/07/06 01:59:37;;;;;;;0.00;0.00;;;;;;;16.54;54.10;102678.69;5073985;28;20028;-79
2022/07/06 02:02:04;;;;;;;0.00;0.00;;;;;;;16.53;54.15;102675.13;5073029;28;20029;-79
2022/07/06 02:04:31;;;;;;;0.00;0.00;;;;;;;16.53;54.47;102680.47;5074117;28;20027;-79
2022/07/06 02:06:57;;;;;;;0.00;0.00;;;;;;;16.51;54.38;102684.97;5073959;28;20032;-78
2022/07/06 02:09:23;;;;;;;0.10;0.10;;;;;;;16.49;54.09;102674.28;5074090;28;20392;-78
2022/07/06 02:11:49;;;;;;;0.10;0.10;;;;;;;16.49;54.48;102666.25;5072565;28;20024;-79
2022/07/06 02:14:16;;;;;;;0.03;0.03;;;;;;;16.48;54.71;102667.16;5073308;28;20423;-78
2022/07/06 02:16:42;;;;;;;0.00;0.00;;;;;;;16.47;54.58;102661.84;5074205;28;20078;-79
2022/07/06 02:19:08;;;;;;;0.05;0.05;;;;;;;16.44;54.17;102668.13;5073604;28;20032;-79
2022/07/06 02:21:34;;;;;;;0.00;0.00;;;;;;;16.43;54.54;102671.69;5075265;28;20032;-79
2022/07/06 02:24:00;;;;;;;0.00;0.00;;;;;;;16.44;53.99;102678.81;5077930;28;20071;-79
2022/07/06 02:26:27;;;;;;;0.10;0.10;;;;;;;16.42;54.81;102680.63;5076986;28;20105;-79
2022/07/06 02:28:53;;;;;;;0.00;0.00;;;;;;;16.43;53.89;102678.84;5077172;28;20119;-79
2022/07/06 02:31:19;;;;;;;0.10;0.10;;;;;;;16.42;54.31;102674.41;5076507;28;20483;-79
2022/07/06 02:33:45;;;;;;;0.03;0.03;;;;;;;16.39;55.06;102680.69;5077201;28;20071;-79
2022/07/06 02:36:11;;;;;;;0.10;0.10;;;;;;;16.37;54.63;102679.81;5076946;28;20158;-79
2022/07/06 02:38:37;;;;;;;0.00;0.00;;;;;;;16.38;54.78;102684.25;5076975;28;20032;-79
2022/07/06 02:41:03;;;;;;;0.08;0.08;;;;;;;16.37;54.62;102681.63;5075759;28;20462;-79
2022/07/06 02:43:29;;;;;;;0.00;0.00;;;;;;;16.36;55.05;102675.38;5077056;28;20029;-77
2022/07/06 02:45:56;;;;;;;0.00;0.00;;;;;;;16.33;55.14;102670.06;5076790;28;20029;-78
2022/07/06 02:48:22;;;;;;;0.00;0.00;;;;;;;16.34;54.32;102671.84;5076911;28;20025;-78
2022/07/06 02:50:48;;;;;;;0.00;0.00;;;;;;;16.34;54.56;102671.84;5075711;28;20024;-79
2022/07/06 02:53:14;;;;;;;0.00;0.00;;;;;;;16.29;55.45;102679.94;5076048;28;20027;-79
2022/07/06 02:55:40;;;;;;;0.00;0.00;;;;;;;16.30;54.96;102671.00;5076550;28;20039;-79
2022/07/06 02:58:06;;;;;;;0.00;0.00;;;;;;;16.25;56.01;102674.63;5076648;28;20033;-79
2022/07/06 03:00:33;;;;;;;0.10;0.10;;;;;;;16.26;55.53;102679.09;5075938;28;20028;-78
2022/07/06 03:02:59;;;;;;;0.00;0.00;;;;;;;16.25;54.94;102674.63;5076081;28;20170;-79
2022/07/06 03:05:25;;;;;;;0.10;0.10;;;;;;;16.24;55.07;102675.56;5076863;28;20028;-79
2022/07/06 03:07:51;;;;;;;0.00;0.00;;;;;;;16.24;54.41;102675.56;5076426;28;20035;-79
2022/07/06 03:10:17;;;;;;;0.00;0.00;;;;;;;16.20;56.00;102680.09;5076427;28;20056;-78
2022/07/06 03:12:43;;;;;;;0.10;0.10;;;;;;;16.21;55.75;102688.97;5075044;28;20037;-79
2022/07/06 03:15:10;;;;;;;0.00;0.00;;;;;;;16.21;56.31;102691.66;5076219;28;20464;-78
2022/07/06 03:17:37;;;;;;;0.00;0.00;;;;;;;16.24;55.89;102691.63;5076096;28;20028;-79
2022/07/06 03:20:05;;;;;;;0.00;0.00;;;;;;;16.26;55.41;102679.09;5076179;28;20028;-78
2022/07/06 03:22:32;;;;;;;0.10;0.10;;;;;;;16.22;55.86;102690.75;5075459;28;20082;-79
2022/07/06 03:24:58;;;;;;;0.00;0.00;;;;;;;16.23;55.95;102685.38;5075939;28;20035;-79
2022/07/06 03:27:24;;;;;;;0.00;0.00;;;;;;;16.24;55.99;102678.25;5075578;28;20028;-79
2022/07/06 03:29:50;;;;;;;0.05;0.05;;;;;;;16.26;54.98;102681.75;5075054;28;20063;-77
2022/07/06 03:32:16;;;;;;;0.10;0.10;;;;;;;16.28;56.18;102685.31;5074616;28;20029;-79
2022/07/06 03:34:42;;;;;;;0.10;0.10;;;;;;;16.34;56.08;102682.56;5075616;28;20033;-79
2022/07/06 03:37:08;;;;;;;0.00;0.00;;;;;;;16.41;55.98;102683.31;5076276;28;20143;-79
2022/07/06 03:39:34;;;;;;;0.00;0.00;;;;;;;16.48;55.42;102685.88;5075120;28;20036;-79
2022/07/06 03:42:00;;;;;;;0.00;0.00;;;;;;;16.57;56.05;102683.97;5074189;28;20031;-79
2022/07/06 03:44:26;;;;;;;0.00;0.00;;;;;;;16.64;55.80;102680.31;5074854;28;20016;-79
2022/07/06 03:46:55;;;;;;;0.10;0.10;;;;;;;16.74;54.97;102687.25;5075729;28;20561;-78
2022/07/06 03:49:21;;;;;;;0.00;0.00;;;;;;;16.81;55.47;102677.38;5075476;28;20066;-79
2022/07/06 03:51:47;;;;;;;0.00;0.00;;;;;;;16.88;55.17;102678.13;5074282;28;20031;-78
2022/07/06 03:54:13;;;;;;;0.00;0.00;;;;;;;16.92;56.06;102671.84;5075369;28;20028;-78
2022/07/06 03:56:40;;;;;;;0.25;0.25;;;;;;;16.96;55.67;102671.75;5075740;28;20032;-79
2022/07/06 03:59:06;;;;;;;0.28;0.28;;;;;;;16.98;55.96;102663.69;5075260;28;20373;-79
2022/07/06 04:01:32;;;;;;;0.00;0.00;;;;;;;17.06;55.35;102667.13;5074926;28;20040;-79
2022/07/06 04:03:58;;;;;;;1.00;1.00;;;;;;;17.13;54.73;102670.56;5075930;28;20425;-79
2022/07/06 04:06:24;;;;;;;0.32;0.32;;;;;;;17.18;55.39;102674.03;5075193;28;20111;-79
2022/07/06 04:08:51;;;;;;;0.10;0.10;;;;;;;17.21;55.22;102675.78;5075326;28;20031;-79
2022/07/06 04:11:17;;;;;;;0.00;0.00;;;;;;;17.30;54.47;102675.63;5074139;28;20403;-79
2022/07/06 04:13:43;;;;;;;0.00;0.00;;;;;;;17.31;54.88;102674.72;5075231;28;20086;-79
2022/07/06 04:16:09;;;;;;;0.00;0.00;;;;;;;17.37;54.29;102674.59;5075223;28;20028;-78
2022/07/06 04:18:35;;;;;;;0.00;0.00;;;;;;;17.37;54.15;102674.59;5076531;28;20036;-79
2022/07/06 04:21:02;;;;;;;0.00;0.00;;;;;;;17.39;54.17;102675.44;5074191;28;20116;-79
2022/07/06 04:23:28;;;;;;;10.35;2.05;;;;;;;17.48;54.01;102670.81;5075498;28;20024;-79
2022/07/06 04:25:54;;;;;;;0.00;0.00;;;;;;;17.49;53.76;102672.59;5075424;28;20025;-79
2022/07/06 04:28:20;;;;;;;0.00;0.00;;;;;;;17.58;53.49;102669.72;5075659;28;20039;-79
2022/07/06 04:30:47;;;;;;;0.00;0.00;;;;;;;17.56;53.07;102677.78;5074251;28;20078;-79
2022/07/06 04:33:13;;;;;;;0.03;0.03;;;;;;;17.63;53.07;102670.50;5074983;28;20056;-79
2022/07/06 04:35:39;;;;;;;0.10;0.10;;;;;;;17.69;52.79;102673.03;5074822;28;20038;-79
2022/07/06 04:38:05;;;;;;;0.00;0.00;;;;;;;17.73;52.52;102680.13;5075509;28;20036;-79
2022/07/06 04:40:31;;;;;;;0.10;0.10;;;;;;;17.74;52.38;102665.78;5074876;28;20440;-78
2022/07/06 04:42:57;;;;;;;0.00;0.00;;;;;;;17.86;52.06;102678.06;5073422;28;20484;-79
2022/07/06 04:45:23;;;;;;;0.00;0.00;;;;;;;17.90;52.06;102677.06;5074493;28;20493;-79
2022/07/06 04:47:50;;;;;;;0.10;0.10;;;;;;;17.92;51.40;102669.00;5075049;28;20488;-79
2022/07/06 04:50:16;;;;;;;0.43;0.28;;;;;;;18.02;51.56;102675.97;5074945;28;20492;-79
2022/07/06 04:52:42;;;;;;;0.10;0.10;;;;;;;18.02;51.56;102680.44;5073788;28;20025;-79
2022/07/06 04:55:09;;;;;;;0.10;0.10;;;;;;;18.08;51.47;102680.28;5075244;28;20098;-79
2022/07/06 04:57:35;;;;;;;0.00;0.00;;;;;;;18.14;51.46;102679.28;5076240;28;20066;-79
2022/07/06 05:00:02;;;;;;;0.10;0.10;;;;;;;18.13;51.05;102682.88;5076587;28;20039;-79
2022/07/06 05:02:28;;;;;;;0.10;0.10;;;;;;;18.22;51.22;102686.25;5075771;28;20024;-79
2022/07/06 05:04:54;;;;;;;0.00;0.00;;;;;;;18.23;50.66;102687.13;5076560;28;20047;-79
2022/07/06 05:07:20;;;;;;;0.00;0.00;;;;;;;18.31;50.87;102682.47;5075875;28;20082;-79
2022/07/06 05:09:47;;;;;;;0.00;0.00;;;;;;;18.35;50.58;102685.97;5075834;28;20035;-79
2022/07/06 05:12:13;;;;;;;0.03;0.03;;;;;;;18.42;50.76;102688.47;5075104;28;20028;-79
2022/07/06 05:14:39;;;;;;;0.00;0.00;;;;;;;18.41;50.33;102691.19;5076303;28;20029;-79
2022/07/06 05:17:05;;;;;;;0.08;0.08;;;;;;;18.35;50.35;102689.50;5075953;28;20159;-79
2022/07/06 05:19:31;;;;;;;0.08;0.08;;;;;;;18.43;50.21;102692.03;5076650;28;20040;-79
2022/07/06 05:21:57;;;;;;;0.03;0.03;;;;;;;18.49;50.35;102699.06;5074724;28;20033;-79
2022/07/06 05:24:23;;;;;;;0.00;0.00;;;;;;;18.47;50.07;102699.09;5066372;28;20036;-79
2022/07/06 05:26:49;;;;;;;0.00;0.00;;;;;;;18.53;50.24;102706.09;5056364;28;20029;-79
2022/07/06 05:29:15;;;;;;;0.00;0.00;;;;;;;18.52;50.19;102707.06;5055301;28;20032;-79
2022/07/06 05:31:41;;;;;;;0.00;0.00;;;;;;;18.42;50.11;102701.88;5054827;28;20029;-79
2022/07/06 05:34:07;;;;;;;0.00;0.00;;;;;;;18.45;49.90;102705.44;5055864;28;20025;-79
2022/07/06 05:36:33;;;;;;;0.00;0.00;;;;;;;18.39;49.59;102707.34;5055330;28;20066;-79
2022/07/06 05:38:59;;;;;;;0.10;0.10;;;;;;;18.40;49.88;102701.03;5055697;28;20485;-79
2022/07/06 05:41:25;;;;;;;0.10;0.10;;;;;;;18.38;49.96;102710.94;5054614;28;20037;-79
2022/07/06 05:43:51;;;;;;;0.00;0.00;;;;;;;18.37;50.07;102703.78;5055800;28;20044;-79
2022/07/06 05:46:17;;;;;;;0.00;0.00;;;;;;;18.32;50.06;102700.34;5055783;28;20060;-79
2022/07/06 05:51:29;;;;;;;0.00;0.00;;;;;;;18.42;50.11;102699.19;5055222;28;20106;-79
2022/07/06 05:53:55;;;;;;;0.00;0.00;;;;;;;18.42;50.36;102707.25;5056564;28;20036;-79
2022/07/06 05:56:21;;;;;;;0.10;0.10;;;;;;;18.49;50.07;102701.75;5057337;28;20385;-78
2022/07/06 05:58:47;;;;;;;0.10;0.10;;;;;;;18.34;49.93;102693.13;5060049;28;20028;-79
2022/07/06 06:01:14;;;;;;;0.10;0.10;;;;;;;18.48;49.85;102699.97;5058564;28;20029;-78
2022/07/06 06:03:40;;;;;;;0.10;0.10;;;;;;;18.49;49.85;102704.41;5059090;28;20049;-78
2022/07/06 06:06:07;;;;;;;0.10;0.10;;;;;;;18.55;49.78;102701.59;5058177;28;20036;-78
2022/07/06 06:08:33;;;;;;;0.00;0.00;;;;;;;18.53;49.65;102703.41;5065055;28;20091;-78
2022/07/06 06:10:59;;;;;;;0.08;0.08;;;;;;;18.60;49.74;102705.03;5073394;28;20608;-78
2022/07/06 06:13:27;;;;;;;0.00;0.00;;;;;;;18.54;49.84;102710.56;5078898;28;20488;-78
2022/07/06 06:15:53;;;;;;;0.00;0.00;;;;;;;18.63;49.56;102705.00;5078908;28;20029;-78
2022/07/06 06:18:19;;;;;;;0.00;0.00;;;;;;;18.64;49.57;102701.38;5079125;28;20036;-78
2022/07/06 06:20:46;;;;;;;0.00;0.00;;;;;;;18.65;48.95;102708.50;5078399;28;20111;-78
2022/07/06 06:23:12;;;;;;;0.10;0.10;;;;;;;18.75;49.12;102701.09;5079356;28;20076;-79
2022/07/06 06:25:39;;;;;;;0.10;0.10;;;;;;;18.71;48.87;102697.59;5079423;28;20066;-79
2022/07/06 06:28:08;;;;;;;0.10;0.10;;;;;;;18.85;48.48;102704.44;5079285;28;20495;-78
2022/07/06 06:30:35;;;;;;;2.25;0.90;;;;;;;18.84;48.24;102708.94;5079896;28;20058;-79
2022/07/06 06:35:45;;;;;;;0.00;0.00;;;;;;;18.92;47.87;102706.09;5049989;27;20385;-78
2022/07/06 06:38:11;;;;;;;0.05;0.05;;;;;;;19.06;47.94;102703.91;5048788;28;20034;-78
2022/07/06 06:40:38;;;;;;;0.00;0.00;;;;;;;19.01;48.01;102705.84;5048524;28;20040;-78
2022/07/06 06:43:04;;;;;;;0.17;0.17;;;;;;;19.12;47.35;102710.06;5048864;28;20053;-78
2022/07/06 06:45:31;;;;;;;0.10;0.10;;;;;;;19.15;47.43;102708.19;5048589;28;20449;-78
2022/07/06 06:47:57;;;;;;;0.00;0.00;;;;;;;19.26;47.14;102702.50;5045844;28;20029;-78
2022/07/06 06:50:23;;;;;;;0.10;0.10;;;;;;;19.32;47.33;102706.84;5047665;28;20085;-78
2022/07/06 06:52:50;;;;;;;0.00;0.00;;;;;;;19.31;46.90;102711.31;5045231;28;20066;-79
2022/07/06 06:55:17;;;;;;;0.05;0.05;;;;;;;19.35;47.01;102714.81;5049862;27;20032;-79
2022/07/06 06:57:44;;;;;;;0.00;0.00;;;;;;;19.35;46.73;102715.72;5048412;28;20040;-78
2022/07/06 07:00:11;;;;;;;0.10;0.10;;;;;;;19.48;46.73;102710.00;5047352;28;20037;-79
2022/07/06 07:02:38;;;;;;;0.00;0.00;;;;;;;19.55;46.74;102722.31;5037828;28;20033;-78
2022/07/06 07:05:05;;;;;;;0.20;0.20;;;;;;;19.49;46.20;102717.13;5035647;28;20021;-79
2022/07/06 07:07:32;;;;;;;0.10;0.10;;;;;;;19.61;46.02;102719.47;5031853;28;20030;-78
2022/07/06 07:09:59;;;;;;;0.10;0.10;;;;;;;19.69;46.37;102713.91;5037677;28;20033;-78
2022/07/06 07:12:28;;;;;;;0.00;0.00;;;;;;;19.77;46.03;102710.97;5035596;28;20025;-79
2022/07/06 07:14:54;;;;;;;0.00;0.00;;;;;;;19.82;45.76;102714.41;5038743;28;20048;-78
2022/07/06 07:17:20;;;;;;;0.10;0.10;;;;;;;19.91;45.43;102706.09;5038090;27;20040;-79
2022/07/06 07:19:46;;;;;;;0.10;0.10;;;;;;;19.92;45.00;102715.94;5040290;28;20043;-79
2022/07/06 07:22:12;;;;;;;0.17;0.17;;;;;;;19.95;45.38;102710.47;5046031;28;20037;-78
2022/07/06 07:24:39;;;;;;;0.00;0.00;;;;;;;19.95;44.76;102720.34;5047265;28;20029;-78
2022/07/06 07:27:05;;;;;;;0.10;0.10;;;;;;;20.06;44.77;102715.50;5046937;28;20029;-78
2022/07/06 07:29:31;;;;;;;0.10;0.10;;;;;;;20.15;44.36;102715.25;5046296;28;20025;-78
2022/07/06 07:31:57;;;;;;;0.10;0.10;;;;;;;20.21;44.06;102711.47;5044631;27;20032;-78
2022/07/06 07:34:23;;;;;;;0.00;0.00;;;;;;;20.22;43.07;102705.16;5045551;27;20033;-78
2022/07/06 07:36:50;;;;;;;0.00;0.00;;;;;;;20.40;43.99;102702.81;5045581;28;20071;-78
2022/07/06 07:39:16;;;;;;;0.10;0.10;;;;;;;20.38;42.68;102696.63;5045838;28;20029;-78
2022/07/06 07:41:42;;;;;;;0.00;0.00;;;;;;;20.48;42.95;102706.16;5045155;28;20057;-79
2022/07/06 07:44:08;;;;;;;0.10;0.10;;;;;;;20.57;43.10;102707.66;5046581;28;20026;-78
2022/07/06 07:46:34;;;;;;;0.00;0.00;;;;;;;20.61;42.09;102714.72;5037963;27;20033;-80
2022/07/06 07:49:00;;;;;;;0.10;0.10;;;;;;;20.75;43.12;102703.50;5034270;28;20020;-78
2022/07/06 07:51:26;;;;;;;0.10;0.10;;;;;;;20.80;42.67;102704.25;5036162;28;20055;-78
2022/07/06 07:53:52;;;;;;;0.10;0.10;;;;;;;20.91;41.15;102702.06;5037139;28;20057;-77
2022/07/06 07:56:18;;;;;;;0.00;0.00;;;;;;;21.04;40.81;102698.97;5036995;28;20033;-78
2022/07/06 07:58:44;;;;;;;0.10;0.10;;;;;;;21.19;38.63;102694.84;5037016;28;20038;-77
2022/07/06 08:01:11;;;;;;;0.00;0.00;;;;;;;21.20;38.99;102700.19;5026213;28;20032;-77
2022/07/06 08:03:37;;;;;;;0.08;0.08;;;;;;;21.37;40.20;102702.28;5027933;28;20030;-78
2022/07/06 08:06:03;;;;;;;0.00;0.00;;;;;;;21.43;40.14;102696.66;5037141;28;20037;-77
2022/07/06 08:08:29;;;;;;;0.00;0.00;;;;;;;21.57;39.63;102695.28;5037633;28;20481;-77
2022/07/06 08:10:55;;;;;;;0.00;0.00;;;;;;;21.69;39.55;102691.25;5036606;28;20038;-78
2022/07/06 08:13:21;;;;;;;0.10;0.10;;;;;;;21.79;39.25;102687.28;5036968;28;20427;-78
2022/07/06 08:15:47;;;;;;;0.10;0.10;;;;;;;21.88;38.06;102688.75;5037623;28;20496;-78
2022/07/06 08:18:13;;;;;;;0.00;0.00;;;;;;;21.89;38.77;102685.97;5037218;28;20070;-78
2022/07/06 08:20:39;;;;;;;0.00;0.00;;;;;;;21.94;36.29;102694.78;5033573;28;20030;-76
2022/07/06 08:23:05;;;;;;;0.00;0.00;;;;;;;22.06;38.47;102698.81;5025969;28;20561;-77
2022/07/06 08:25:32;;;;;;;0.20;0.20;;;;;;;22.12;37.77;102695.00;5030008;28;20025;-77
2022/07/06 08:27:58;;;;;;;0.10;0.10;;;;;;;22.13;33.36;102699.44;5035213;28;20032;-77
2022/07/06 08:30:24;;;;;;;0.00;0.00;;;;;;;22.26;36.64;102689.94;5034571;28;20037;-77
2022/07/06 08:32:51;;;;;;;0.00;0.00;;;;;;;22.32;34.81;102696.91;5035016;28;20025;-78
2022/07/06 08:35:17;;;;;;;0.00;0.00;;;;;;;22.50;35.81;102679.09;5036004;28;20138;-77
2022/07/06 08:37:43;;;;;;;0.20;0.20;;;;;;;22.60;36.15;102677.78;5035527;28;20037;-77
2022/07/06 08:40:09;;;;;;;0.10;0.10;;;;;;;22.80;35.62;102684.16;5034922;28;20037;-77
2022/07/06 08:42:36;;;;;;;0.00;0.00;;;;;;;22.99;36.33;102670.75;5012484;28;20536;-77
2022/07/06 08:45:05;;;;;;;0.10;0.10;;;;;;;23.12;35.43;102672.91;5012616;28;20117;-78
2022/07/06 08:47:31;;;;;;;0.10;0.10;;;;;;;23.19;36.00;102664.50;5010652;28;20108;-78
2022/07/06 08:49:58;;;;;;;0.10;0.10;;;;;;;23.35;36.42;102674.59;5011317;28;20124;-79
2022/07/06 08:52:25;;;;;;;0.13;0.13;;;;;;;23.42;34.92;102673.38;5010652;28;20081;-78
2022/07/06 08:54:51;;;;;;;0.10;0.10;;;;;;;23.46;34.43;102672.28;5011357;28;20056;-78
2022/07/06 08:57:18;;;;;;;0.10;0.10;;;;;;;23.40;34.73;102673.47;5010280;28;20034;-79
2022/07/06 08:59:44;;;;;;;0.10;0.10;;;;;;;23.42;33.17;102671.53;5011168;28;20057;-78
2022/07/06 09:02:13;;;;;;;0.10;0.10;;;;;;;23.42;31.10;102673.38;5010281;28;20099;-79
2022/07/06 09:04:43;;;;;;;0.10;0.10;;;;;;;23.55;33.93;102671.88;5011139;28;20439;-78
2022/07/06 09:07:10;;;;;;;0.10;0.10;;;;;;;23.57;33.98;102669.97;5011077;28;20022;-79
2022/07/06 09:09:37;;;;;;;0.00;0.00;;;;;;;23.65;34.59;102668.72;5013396;28;20106;-79
2022/07/06 09:12:04;;;;;;;0.10;0.10;;;;;;;23.48;31.63;102675.81;5009900;28;20522;-79
2022/07/06 09:14:30;;;;;;;0.10;0.10;;;;;;;23.56;31.72;102673.66;5010533;28;20493;-78
2022/07/06 09:17:05;;;;;;;0.00;0.00;;;;;;;23.67;33.47;102675.81;5011392;28;20040;-78
2022/07/06 09:19:33;;;;;;;0.03;0.03;;;;;;;23.63;32.51;102674.22;5011559;28;20026;-79
2022/07/06 09:21:59;;;;;;;0.10;0.10;;;;;;;23.67;32.25;102675.81;5010511;28;20025;-79
2022/07/06 09:24:26;;;;;;;0.10;0.10;;;;;;;23.77;33.63;102667.31;5011425;28;20026;-79
2022/07/06 09:26:56;;;;;;;0.10;0.10;;;;;;;23.80;31.55;102672.56;5011987;28;20025;-79
2022/07/06 09:29:31;;;;;;;0.10;0.10;;;;;;;23.96;32.99;102678.16;5011348;28;20527;-78
2022/07/06 09:31:58;;;;;;;0.10;0.10;;;;;;;23.97;31.71;102679.91;5010780;28;20033;-79
2022/07/06 09:34:27;;;;;;;0.10;0.10;;;;;;;23.81;30.65;102677.88;5011778;28;20053;-78
2022/07/06 09:36:54;;;;;;;0.10;0.10;;;;;;;23.84;30.53;102677.75;5011894;28;20030;-79
2022/07/06 09:42:00;;;;;;;0.20;0.20;;;;;;;23.95;32.06;102695.34;5069174;28;20394;-78
2022/07/06 09:44:31;;;;;;;0.10;0.10;;;;;;;23.92;31.09;102698.22;5070157;28;20036;-79
2022/07/06 09:46:59;;;;;;;0.10;0.10;;;;;;;23.89;31.24;102686.53;5070235;28;20569;-79
2022/07/06 09:49:26;;;;;;;0.30;0.30;;;;;;;23.92;29.27;102690.09;5069503;28;20032;-79
2022/07/06 09:51:55;;;;;;;0.10;0.10;;;;;;;24.01;31.39;102700.47;5068807;28;20488;-78
2022/07/06 09:54:22;;;;;;;0.10;0.10;;;;;;;24.08;31.02;102701.94;5069789;28;20090;-79
2022/07/06 09:56:51;;;;;;;0.00;0.00;;;;;;;24.14;31.71;102692.63;5069831;28;20543;-78
2022/07/06 09:59:21;;;;;;;0.10;0.10;;;;;;;24.18;30.50;102687.00;5069077;28;20040;-79
2022/07/06 10:01:50;;;;;;;0.10;0.10;;;;;;;24.24;30.83;102696.66;5068491;28;20029;-78
2022/07/06 10:04:18;;;;;;;0.10;0.10;;;;;;;24.26;31.43;102692.03;5069305;28;20102;-78
2022/07/06 10:06:44;;;;;;;0.10;0.10;;;;;;;24.20;31.44;102695.94;5069418;28;20116;-78
2022/07/06 10:09:12;;;;;;;0.10;0.10;;;;;;;24.08;31.15;102691.09;5069270;28;20047;-79
2022/07/06 10:11:43;;;;;;;0.10;0.10;;;;;;;24.02;30.73;102686.84;5068297;28;20017;-78
2022/07/06 10:14:13;;;;;;;0.10;0.10;;;;;;;24.03;31.13;102676.91;5069403;28;20025;-79
2022/07/06 10:16:39;;;;;;;0.00;0.00;;;;;;;24.04;31.58;102671.41;5069883;28;20377;-78
2022/07/06 10:19:08;;;;;;;0.10;0.10;;;;;;;24.02;32.19;102678.72;5068889;28;20029;-78
2022/07/06 10:21:38;;;;;;;0.10;0.10;;;;;;;24.00;30.82;102677.03;5067714;28;20237;-79
2022/07/06 10:24:07;;;;;;;0.50;0.10;;;;;;;24.09;31.92;102675.72;5068902;28;20033;-78
2022/07/06 10:26:35;;;;;;;0.10;0.10;;;;;;;24.09;32.16;102678.44;5068949;28;20071;-78
2022/07/06 10:29:03;;;;;;;0.10;0.10;;;;;;;23.99;31.97;102676.19;5068368;28;20040;-78
2022/07/06 10:31:32;;;;;;;0.10;0.10;;;;;;;24.04;32.41;102673.25;5067657;28;20035;-78
2022/07/06 10:34:00;;;;;;;0.10;0.10;;;;;;;24.02;31.97;102675.16;5068396;28;20369;-78
2022/07/06 10:36:28;;;;;;;0.10;0.10;;;;;;;24.06;32.46;102668.63;5068676;28;20031;-79
2022/07/06 10:38:55;;;;;;;0.00;0.00;;;;;;;24.07;33.12;102667.69;5068432;28;20036;-78
2022/07/06 10:41:36;;;;;;;0.00;0.00;;;;;;;24.08;32.39;102669.44;5066983;28;20037;-78
2022/07/06 10:44:20;;;;;;;0.00;0.00;;;;;;;24.27;31.04;102652.28;5068801;28;20029;-79
2022/07/06 10:49:29;;;;;;;0.00;0.00;;;;;;;24.46;32.43;102663.97;5110442;27;20350;-77
2022/07/06 10:51:57;;;;;;;0.00;0.00;;;;;;;24.55;32.11;102659.94;5109074;28;20517;-79
2022/07/06 10:54:24;;;;;;;0.03;0.03;;;;;;;24.66;31.83;102660.28;5110501;28;20036;-79
2022/07/06 10:56:51;;;;;;;0.10;0.10;;;;;;;24.69;30.88;102660.13;5109712;27;20020;-78
2022/07/06 10:59:20;;;;;;;0.10;0.10;;;;;;;24.75;30.66;102652.63;5110116;28;20055;-79
2022/07/06 11:02:15;;;;;;;1.98;1.08;;;;;;;24.94;31.23;102649.84;5109179;28;20035;-79
2022/07/06 11:04:43;;;;;;;0.20;0.20;;;;;;;25.01;31.82;102656.69;5110026;28;20024;-78
2022/07/06 11:09:59;;;;;;;0.03;0.03;;;;;;;25.29;29.75;102644.38;5069912;28;20387;-78
2022/07/06 11:12:26;;;;;;;0.05;0.05;;;;;;;25.34;31.12;102634.16;5070381;28;20048;-79
2022/07/06 11:14:53;;;;;;;0.10;0.10;;;;;;;25.42;30.56;102626.50;5071658;28;20043;-79
2022/07/06 11:17:20;;;;;;;0.00;0.00;;;;;;;25.51;30.58;102620.56;5071467;28;20032;-79
2022/07/06 11:20:10;;;;;;;0.10;0.10;;;;;;;25.18;30.31;102612.41;5072077;28;20064;-78
2022/07/06 11:22:38;;;;;;;0.40;0.40;;;;;;;25.01;29.60;102624.13;5070317;28;20035;-78
2022/07/06 11:25:05;;;;;;;0.00;0.00;;;;;;;24.99;30.33;102623.38;5070369;28;20082;-79
2022/07/06 11:27:34;;;;;;;0.00;0.00;;;;;;;25.06;30.12;102618.47;5070287;28;20092;-79
2022/07/06 11:30:00;;;;;;;0.10;0.10;;;;;;;25.19;29.99;102615.03;5070484;28;20028;-78
2022/07/06 11:32:27;;;;;;;0.10;0.10;;;;;;;25.12;28.83;102620.88;5070052;28;20032;-79
2022/07/06 11:34:54;;;;;;;0.00;0.00;;;;;;;25.28;30.11;102612.78;5070869;28;20120;-79
2022/07/06 11:37:20;;;;;;;0.00;0.00;;;;;;;25.16;29.20;102614.31;5071047;28;20036;-80